Time;durP1;ratioP1;P1;durP2;ratioP2;P2;SDS_P1;SDS_P2;PMS_P1;PMS_P2;Temp;Humidity;BMP_temperature;BMP_pressure;BME280_temperature;BME280_humidity;BME280_pressure;Samples;Min_cycle;Max_cycle;Signal;HPM_P1;HPM_P2
2022/02/03 00:00:40;;;;;;;13.05;10.05;;;;;;;8.06;92.61;101131.94;5034672;28;20886;-81
2022/02/03 00:03:14;;;;;;;11.75;9.63;;;;;;;8.06;92.39;101129.22;5022589;28;20413;-82
2022/02/03 00:16:30;;;;;;;9.32;8.32;;;;;;;8.05;92.38;101129.41;5025640;28;20464;-82
2022/02/03 00:24:46;;;;;;;10.68;8.38;;;;;;;7.95;91.90;101129.88;5029178;28;20422;-82
2022/02/03 00:27:23;;;;;;;12.57;8.90;;;;;;;8.00;91.98;101130.03;5014402;28;20420;-82
2022/02/03 00:30:04;;;;;;;9.90;8.90;;;;;;;8.03;91.63;101139.63;5023196;28;20468;-81
2022/02/03 00:32:47;;;;;;;11.98;8.82;;;;;;;8.06;91.51;101126.53;5015150;28;20419;-82
2022/02/03 00:48:43;;;;;;;10.07;8.35;;;;;;;8.01;91.58;101117.38;5012437;28;20796;-82
2022/02/03 00:51:09;;;;;;;10.18;8.50;;;;;;;8.00;91.49;101105.75;5020716;28;20819;-83
2022/02/03 00:53:36;;;;;;;8.80;8.00;;;;;;;7.96;91.78;101101.84;5024921;28;20539;-83
2022/02/03 00:56:14;;;;;;;9.38;8.50;;;;;;;7.93;91.56;101109.53;5016204;28;20895;-82
2022/02/03 00:58:51;;;;;;;11.85;9.38;;;;;;;7.95;91.21;101112.84;5029203;28;20412;-82
2022/02/03 01:01:19;;;;;;;10.40;9.20;;;;;;;7.96;91.26;101109.09;5030165;28;20905;-82
2022/02/03 01:03:50;;;;;;;11.75;9.88;;;;;;;7.94;91.66;101122.78;5031733;28;20956;-81
2022/02/03 01:06:17;;;;;;;11.48;9.95;;;;;;;7.94;91.63;101117.41;5022661;28;20391;-83
2022/02/03 01:08:45;;;;;;;12.93;9.57;;;;;;;7.95;91.47;101118.22;5031746;28;20418;-83
2022/02/03 01:11:18;;;;;;;11.57;10.07;;;;;;;7.94;91.49;101124.66;5030426;28;20956;-82
2022/02/03 01:21:47;;;;;;;11.73;10.52;;;;;;;8.00;92.17;101121.16;5018976;28;20416;-83
2022/02/03 01:33:36;;;;;;;11.52;10.25;;;;;;;8.02;91.68;101110.94;5025928;28;20472;-83
2022/02/03 01:43:30;;;;;;;10.55;9.57;;;;;;;8.02;91.29;101100.16;5019553;28;20427;-82
2022/02/03 01:46:01;;;;;;;12.43;10.10;;;;;;;8.05;91.06;101105.13;5031529;28;20868;-82
2022/02/03 01:49:04;;;;;;;10.35;9.27;;;;;;;8.05;91.05;101097.88;5018318;28;20455;-82
2022/02/03 01:54:29;;;;;;;10.73;9.73;;;;;;;7.98;91.66;101094.34;5032875;28;20474;-82
2022/02/03 01:57:07;;;;;;;10.48;9.35;;;;;;;8.04;90.90;101098.91;5032216;28;20395;-82
2022/02/03 01:59:35;;;;;;;12.35;9.68;;;;;;;8.07;91.21;101086.84;5025189;28;20403;-82
2022/02/03 02:02:04;;;;;;;9.93;9.02;;;;;;;8.07;90.89;101084.13;5037151;28;20430;-82
2022/02/03 02:04:54;;;;;;;10.65;9.40;;;;;;;8.01;90.54;101080.44;5021748;28;20483;-82
2022/02/03 02:07:26;;;;;;;9.75;8.55;;;;;;;8.06;90.87;101085.19;5017097;28;20427;-83
2022/02/03 02:10:35;;;;;;;10.48;9.55;;;;;;;8.09;90.98;101076.66;5029855;28;20434;-82
2022/02/03 02:13:20;;;;;;;11.13;9.93;;;;;;;8.05;90.60;101087.06;5032814;28;20512;-83
2022/02/03 02:16:07;;;;;;;10.43;9.50;;;;;;;8.02;90.42;101084.78;5024559;28;20780;-82
2022/02/03 02:38:15;;;;;;;11.60;10.17;;;;;;;8.09;89.94;101069.41;5024238;28;20414;-83
2022/02/03 02:42:15;;;;;;;10.98;9.65;;;;;;;8.09;90.57;101066.72;5014037;28;20400;-83
2022/02/03 02:43:57;;;;;;;10.75;9.60;;;;;;;8.11;90.61;101059.22;5024548;28;20424;-83
2022/02/03 02:46:31;;;;;;;11.07;9.85;;;;;;;8.12;90.48;101050.09;5015690;28;20920;-83
2022/02/03 02:49:13;;;;;;;10.95;9.23;;;;;;;8.10;90.31;101059.44;5018492;28;20423;-83
2022/02/03 02:51:57;;;;;;;10.63;9.63;;;;;;;8.11;90.00;101055.69;5027527;28;20500;-83
2022/02/03 02:55:49;;;;;;;11.50;9.43;;;;;;;8.02;90.52;101052.41;5030414;28;20916;-83
2022/02/03 03:30:48;;;;;;;10.60;9.50;;;;;;;8.08;90.41;101054.25;5032092;28;20374;-82
2022/02/03 03:33:31;;;;;;;10.32;9.23;;;;;;;8.03;89.98;101039.75;5013714;28;20417;-82
2022/02/03 03:36:04;;;;;;;10.60;9.38;;;;;;;8.03;90.37;101043.28;5026407;28;20853;-82
2022/02/03 03:38:34;;;;;;;11.65;9.50;;;;;;;8.01;90.34;101042.66;5023244;28;20417;-83
2022/02/03 03:41:01;;;;;;;10.10;9.07;;;;;;;8.04;90.22;101047.59;5021150;28;20478;-82
2022/02/03 03:43:34;;;;;;;12.70;9.07;;;;;;;8.09;90.14;101039.72;5016634;28;20458;-82
2022/02/03 03:46:18;;;;;;;10.63;9.43;;;;;;;8.11;90.13;101029.50;5023890;28;20415;-82
2022/02/03 03:49:10;;;;;;;11.65;9.70;;;;;;;8.15;90.04;101027.22;5016540;28;20463;-82
2022/02/03 03:51:45;;;;;;;10.75;9.65;;;;;;;8.15;89.85;101019.94;5021160;28;20416;-82
2022/02/03 03:54:23;;;;;;;11.60;10.40;;;;;;;8.12;90.18;101017.69;5011852;28;20412;-82
2022/02/03 03:57:01;;;;;;;13.23;10.57;;;;;;;8.13;89.59;101022.06;5028608;28;20399;-82
2022/02/03 04:37:18;;;;;;;17.70;13.25;;;;;;;7.83;91.45;100970.50;5016046;28;20407;-82
2022/02/03 05:03:04;;;;;;;23.30;15.77;;;;;;;7.58;92.00;100955.22;5012248;28;20430;-82
2022/02/03 05:08:46;;;;;;;25.00;17.02;;;;;;;7.61;92.25;100960.19;5023131;28;20819;-82
2022/02/03 05:11:55;;;;;;;25.90;17.38;;;;;;;7.64;92.66;100957.09;5018207;28;20397;-82
2022/02/03 05:15:13;;;;;;;20.40;15.63;;;;;;;7.66;92.79;100960.38;5016119;28;20412;-82
2022/02/03 05:18:25;;;;;;;20.00;14.75;;;;;;;7.67;92.29;100957.47;5028487;28;20493;-82
2022/02/03 05:25:13;;;;;;;21.13;14.88;;;;;;;7.65;92.37;100958.72;5013314;28;20541;-82
2022/02/03 06:09:03;;;;;;;33.65;20.63;;;;;;;7.63;92.83;100898.78;5016292;28;20803;-83
2022/02/03 06:14:17;;;;;;;21.30;15.23;;;;;;;7.61;92.84;100887.34;5019202;28;20777;-84
2022/02/03 06:17:02;;;;;;;22.50;15.97;;;;;;;7.59;92.42;100884.91;5029162;28;20495;-84
2022/02/03 06:22:27;;;;;;;29.05;18.02;;;;;;;7.43;92.55;100876.47;5011307;28;20440;-83
2022/02/03 06:27:27;;;;;;;34.50;22.55;;;;;;;7.31;93.01;100876.28;5026543;28;20419;-83
2022/02/03 06:29:56;;;;;;;36.75;21.67;;;;;;;7.27;92.87;100875.91;5025002;28;20485;-83
2022/02/03 06:32:22;;;;;;;32.88;21.23;;;;;;;7.27;93.06;100875.09;5025014;28;20546;-81
2022/02/03 06:34:48;;;;;;;34.78;22.42;;;;;;;7.25;92.68;100871.75;5021950;28;20930;-82
2022/02/03 06:37:18;;;;;;;35.63;22.60;;;;;;;7.17;93.12;100889.00;5021605;28;20419;-86
2022/02/03 06:39:46;;;;;;;34.97;22.27;;;;;;;7.11;93.08;100886.34;5014298;28;20923;-82
2022/02/03 06:42:14;;;;;;;32.70;20.67;;;;;;;7.09;93.78;100873.06;5013262;28;20991;-83
2022/02/03 06:44:46;;;;;;;35.05;21.50;;;;;;;7.09;93.91;100883.00;5011714;28;21688;-81
2022/02/03 06:47:26;;;;;;;35.33;21.77;;;;;;;7.06;93.53;100891.50;5016491;28;20922;-82
2022/02/03 06:52:34;;;;;;;36.58;22.30;;;;;;;7.11;93.81;100887.13;5023047;28;20461;-82
2022/02/03 06:55:07;;;;;;;36.67;23.20;;;;;;;7.08;93.75;100887.56;5023117;28;20409;-82
2022/02/03 06:57:42;;;;;;;42.15;25.55;;;;;;;7.12;94.27;100890.66;5021026;28;20407;-82
2022/02/03 07:00:17;;;;;;;44.30;25.35;;;;;;;7.14;94.19;100878.66;5036603;28;20418;-83
2022/02/03 07:02:44;;;;;;;46.75;25.42;;;;;;;7.14;94.57;100877.81;5018150;28;21025;-82
2022/02/03 07:05:09;;;;;;;41.45;23.73;;;;;;;7.21;94.55;100882.13;5023654;28;20415;-82
2022/02/03 07:07:39;;;;;;;42.73;23.97;;;;;;;7.25;93.90;100877.16;5025201;28;20403;-82
2022/02/03 07:10:08;;;;;;;46.72;23.98;;;;;;;7.26;93.73;100881.50;5026318;28;20487;-82
2022/02/03 07:12:34;;;;;;;51.85;25.88;;;;;;;7.25;93.72;100874.44;5021218;28;20929;-82
2022/02/03 07:15:01;;;;;;;48.05;26.42;;;;;;;7.23;93.18;100874.69;5026758;28;20420;-82
2022/02/03 07:17:27;;;;;;;46.97;26.85;;;;;;;7.21;93.34;100865.97;5023605;28;20407;-82
2022/02/03 07:19:55;;;;;;;47.80;27.10;;;;;;;7.25;93.35;100872.59;5012278;28;20436;-82
2022/02/03 07:22:20;;;;;;;57.87;33.10;;;;;;;7.31;93.67;100868.19;5018420;28;20537;-83
2022/02/03 07:24:46;;;;;;;54.23;31.37;;;;;;;7.34;93.68;100861.56;5022357;28;20502;-82
2022/02/03 07:27:11;;;;;;;51.35;30.25;;;;;;;7.41;93.15;100867.78;5019295;28;20920;-84
2022/02/03 07:29:37;;;;;;;44.50;29.00;;;;;;;7.36;93.82;100863.00;5023664;28;21006;-81
2022/02/03 07:32:02;;;;;;;41.65;27.25;;;;;;;7.44;93.21;100860.09;5015400;28;20486;-82
2022/02/03 07:34:29;;;;;;;40.20;26.43;;;;;;;7.50;93.38;100850.31;5015190;28;20401;-82
2022/02/03 07:36:54;;;;;;;42.60;26.00;;;;;;;7.53;92.90;100841.78;5016122;28;20419;-82
2022/02/03 07:39:20;;;;;;;39.40;24.00;;;;;;;7.58;92.89;100833.84;5014876;28;20405;-82
2022/02/03 07:41:45;;;;;;;34.00;22.48;;;;;;;7.64;92.53;100838.41;5011568;28;20421;-82
2022/02/03 07:44:14;;;;;;;33.27;23.13;;;;;;;7.67;92.55;100843.38;5022461;28;20516;-82
2022/02/03 07:46:39;;;;;;;32.55;23.30;;;;;;;7.68;92.30;100831.50;5026398;28;20449;-81
2022/02/03 07:49:04;;;;;;;29.50;21.00;;;;;;;7.81;92.15;100832.25;5018209;28;20445;-82
2022/02/03 07:51:30;;;;;;;33.97;24.10;;;;;;;7.94;91.84;100820.53;5016260;28;20479;-82
2022/02/03 07:53:55;;;;;;;39.07;26.83;;;;;;;7.95;91.55;100826.75;5033157;28;20415;-82
2022/02/03 07:56:21;;;;;;;26.00;20.13;;;;;;;7.97;91.93;100825.50;5026104;28;20419;-82
2022/02/03 07:58:46;;;;;;;22.37;18.27;;;;;;;7.99;91.55;100831.53;5006870;28;20419;-82
2022/02/03 08:01:11;;;;;;;22.90;17.93;;;;;;;8.13;90.88;100821.44;5016925;28;20455;-82
2022/02/03 08:03:41;;;;;;;21.58;16.98;;;;;;;8.25;90.18;100811.59;5012657;28;20736;-82
2022/02/03 08:06:09;;;;;;;21.15;17.17;;;;;;;8.30;89.83;100801.78;5022922;28;20407;-82
2022/02/03 08:08:51;;;;;;;19.60;15.82;;;;;;;8.32;89.12;100798.88;5015745;28;20413;-82
2022/02/03 08:11:23;;;;;;;21.15;16.48;;;;;;;8.38;89.47;100803.41;5013215;28;20493;-82
2022/02/03 08:13:55;;;;;;;21.88;16.17;;;;;;;8.39;88.89;100798.81;5023380;28;20418;-82
2022/02/03 08:16:30;;;;;;;20.13;16.37;;;;;;;8.30;89.27;100801.78;5012573;28;20916;-83
2022/02/03 08:19:07;;;;;;;19.70;16.15;;;;;;;8.24;89.69;100799.13;5006659;28;20420;-82
2022/02/03 08:21:35;;;;;;;19.33;15.70;;;;;;;8.32;89.32;100785.38;5014326;28;20408;-82
2022/02/03 08:26:47;;;;;;;18.05;15.13;;;;;;;8.31;89.39;100786.41;4996292;28;20964;-82
2022/02/03 08:31:54;;;;;;;16.73;13.38;;;;;;;8.52;89.05;100774.38;5013918;28;20436;-82
2022/02/03 08:34:33;;;;;;;14.07;12.68;;;;;;;8.56;88.14;100771.00;5015750;28;20415;-83
2022/02/03 08:37:00;;;;;;;15.73;13.25;;;;;;;8.56;88.40;100781.78;5024728;28;20755;-82
2022/02/03 08:39:26;;;;;;;14.60;12.60;;;;;;;8.51;88.50;100778.97;5020230;28;20744;-82
2022/02/03 08:41:51;;;;;;;13.57;12.18;;;;;;;8.47;87.91;100785.84;5013604;28;20927;-82
2022/02/03 08:44:16;;;;;;;12.63;11.33;;;;;;;8.34;88.37;100781.41;5010188;28;20646;-83
2022/02/03 08:46:41;;;;;;;14.07;11.70;;;;;;;8.20;89.52;100792.53;5027457;28;20486;-82
2022/02/03 08:49:07;;;;;;;12.13;10.83;;;;;;;8.06;89.90;100799.09;5017494;28;20427;-83
2022/02/03 08:51:33;;;;;;;13.30;11.10;;;;;;;8.19;89.38;100790.88;5011612;28;20413;-82
2022/02/03 08:54:06;;;;;;;12.57;10.60;;;;;;;8.21;89.11;100778.78;5012645;28;20412;-82
2022/02/03 08:56:47;;;;;;;12.05;10.20;;;;;;;8.23;89.17;100779.38;5021510;28;20406;-82
2022/02/03 09:40:12;;;;;;;11.30;8.82;;;;;;;8.90;86.45;100720.94;5020826;28;20450;-82
2022/02/03 09:54:08;;;;;;;6.80;6.20;;;;;;;9.46;84.55;100701.63;5015501;28;20424;-82
2022/02/03 09:56:41;;;;;;;7.72;6.40;;;;;;;9.65;83.01;100705.09;5013209;28;20424;-81
2022/02/03 09:59:15;;;;;;;9.10;7.65;;;;;;;9.68;83.09;100699.22;5028318;28;20412;-82
2022/02/03 10:01:55;;;;;;;7.35;6.75;;;;;;;9.56;83.67;100704.59;5028851;28;20861;-82
2022/02/03 10:04:56;;;;;;;6.82;6.20;;;;;;;9.35;84.20;100702.44;5016693;28;20420;-82
2022/02/03 10:07:30;;;;;;;6.03;5.40;;;;;;;9.68;83.69;100694.59;5017514;28;20404;-82
2022/02/03 10:09:57;;;;;;;6.53;5.82;;;;;;;9.72;83.22;100674.13;5023770;28;20458;-82
2022/02/03 10:12:35;;;;;;;5.90;5.40;;;;;;;9.77;82.51;100666.16;5015267;28;20422;-82
2022/02/03 10:15:02;;;;;;;5.70;5.15;;;;;;;9.88;81.80;100651.78;5021877;28;20399;-81
2022/02/03 10:17:34;;;;;;;6.97;4.85;;;;;;;9.74;82.80;100660.38;5023485;28;20906;-82
2022/02/03 10:20:03;;;;;;;5.73;5.23;;;;;;;9.90;81.97;100656.97;5025424;28;20509;-82
2022/02/03 10:22:28;;;;;;;5.07;4.65;;;;;;;9.74;82.40;100665.81;5017104;28;20410;-82
2022/02/03 10:25:09;;;;;;;5.53;4.90;;;;;;;9.76;82.50;100658.25;5017390;28;20411;-82
2022/02/03 10:27:38;;;;;;;5.30;4.80;;;;;;;9.95;81.74;100648.13;5019588;28;20558;-82
2022/02/03 10:30:21;;;;;;;5.13;4.70;;;;;;;10.07;81.31;100643.56;5028906;28;20419;-82
2022/02/03 10:32:46;;;;;;;5.85;5.35;;;;;;;10.31;80.98;100640.59;5012905;28;20467;-82
2022/02/03 10:35:24;;;;;;;5.43;5.03;;;;;;;10.71;79.73;100629.75;5016040;28;20862;-82
2022/02/03 10:48:48;;;;;;;3.67;3.40;;;;;;;10.31;79.99;100635.16;5018618;28;20440;-82
2022/02/03 10:51:48;;;;;;;4.55;4.25;;;;;;;10.46;79.05;100637.38;5022129;28;20425;-82
2022/02/03 10:54:21;;;;;;;4.13;3.83;;;;;;;10.62;77.85;100604.09;5013184;28;20421;-82
2022/02/03 10:57:31;;;;;;;3.65;3.35;;;;;;;10.81;76.50;100604.72;5013114;28;20408;-82
2022/02/03 11:05:14;;;;;;;3.83;3.53;;;;;;;10.69;77.52;100566.03;5018395;28;20424;-82
2022/02/03 11:07:52;;;;;;;10.25;7.47;;;;;;;10.58;78.01;100600.22;5017408;28;20411;-81
2022/02/03 11:10:38;;;;;;;3.17;2.97;;;;;;;10.46;78.66;100602.16;5025062;28;20409;-82
2022/02/03 11:13:04;;;;;;;4.72;4.32;;;;;;;10.28;79.38;100597.72;5015691;28;20895;-82
2022/02/03 11:15:32;;;;;;;3.40;3.10;;;;;;;10.23;79.55;100577.84;5029459;28;20916;-82
2022/02/03 11:17:59;;;;;;;2.80;2.70;;;;;;;10.21;79.04;100561.00;5026244;28;20412;-82
2022/02/03 11:20:26;;;;;;;2.43;2.33;;;;;;;10.20;79.11;100564.78;5019654;28;20769;-84
2022/02/03 11:31:01;;;;;;;2.42;2.33;;;;;;;10.70;77.16;100535.16;5016907;28;20437;-85
2022/02/03 11:37:12;;;;;;;2.55;2.35;;;;;;;10.62;77.42;100528.22;5017912;28;20412;-82
2022/02/03 11:45:48;;;;;;;3.13;2.53;;;;;;;10.99;75.69;100517.75;5018852;28;20945;-81
2022/02/03 11:47:42;;;;;;;3.72;2.20;;;;;;;11.27;74.15;100516.84;5034792;28;20494;-83
2022/02/03 11:51:01;;;;;;;2.05;1.95;;;;;;;11.32;73.58;100487.91;5032171;28;20387;-83
2022/02/03 12:11:03;;;;;;;1.00;1.00;;;;;;;11.00;74.04;100480.63;5059262;28;20446;-83
2022/02/03 12:19:28;;;;;;;1.90;1.60;;;;;;;10.89;74.22;100438.97;5015820;28;20414;-82
2022/02/03 12:22:10;;;;;;;1.05;1.05;;;;;;;10.84;73.55;100447.00;5012380;28;20503;-81
2022/02/03 12:24:54;;;;;;;1.17;1.13;;;;;;;11.00;73.47;100429.91;5008869;28;20417;-82
2022/02/03 12:30:03;;;;;;;1.60;1.15;;;;;;;11.03;73.24;100418.56;5015394;28;20498;-80
2022/02/03 12:33:04;;;;;;;1.10;1.10;;;;;;;10.96;73.34;100411.69;5016774;28;20809;-80
2022/02/03 12:45:48;;;;;;;3.13;1.20;;;;;;;10.98;72.99;100388.66;5012665;28;20523;-81
2022/02/03 12:48:13;;;;;;;1.13;1.10;;;;;;;10.93;73.55;100400.25;5018362;28;20849;-81
2022/02/03 12:50:41;;;;;;;1.27;1.27;;;;;;;10.75;74.23;100395.09;4997250;28;20443;-83
2022/02/03 12:53:08;;;;;;;1.10;1.10;;;;;;;10.57;74.23;100391.84;5019308;28;20414;-82
2022/02/03 12:55:42;;;;;;;1.38;1.38;;;;;;;10.25;75.45;100395.06;5011873;28;20409;-82
2022/02/03 12:58:21;;;;;;;1.20;1.20;;;;;;;10.22;76.05;100394.75;5012429;28;20895;-81
2022/02/03 13:00:55;;;;;;;1.47;1.33;;;;;;;10.11;76.35;100390.19;5014180;28;20914;-81
2022/02/03 13:03:28;;;;;;;1.00;1.00;;;;;;;10.14;76.12;100384.31;5016810;28;20412;-82
2022/02/03 13:05:57;;;;;;;1.77;1.40;;;;;;;10.13;76.25;100402.41;5015505;28;20401;-82
2022/02/03 13:08:44;;;;;;;1.73;1.40;;;;;;;10.35;75.45;100386.31;5013830;28;20411;-82
2022/02/03 13:12:06;;;;;;;1.35;1.35;;;;;;;10.51;74.98;100387.38;5015263;28;20411;-81
2022/02/03 13:14:28;;;;;;;1.77;1.77;;;;;;;10.68;74.04;100388.19;5019136;28;20422;-80
2022/02/03 13:17:00;;;;;;;3.20;2.47;;;;;;;10.78;73.81;100393.78;5015960;28;20910;-81
2022/02/03 13:22:16;;;;;;;1.10;1.10;;;;;;;10.41;74.36;100372.59;5024853;28;20401;-81
2022/02/03 13:25:04;;;;;;;1.55;1.45;;;;;;;10.35;74.76;100375.47;5018564;28;20408;-81
2022/02/03 13:27:48;;;;;;;3.70;1.45;;;;;;;10.29;75.17;100365.63;5018506;28;20468;-80
2022/02/03 13:30:32;;;;;;;2.75;2.42;;;;;;;10.44;74.62;100365.06;5020160;28;20400;-81
2022/02/03 13:33:01;;;;;;;2.80;1.60;;;;;;;10.35;75.08;100360.03;5019455;28;20465;-80
2022/02/03 13:35:32;;;;;;;4.55;3.50;;;;;;;10.50;74.52;100369.50;5015176;28;20390;-80
2022/02/03 13:38:03;;;;;;;4.82;3.47;;;;;;;10.67;73.88;100360.28;5029406;28;20564;-81
2022/02/03 13:40:29;;;;;;;8.10;5.28;;;;;;;10.82;73.02;100365.13;5022264;28;20411;-81
2022/02/03 13:43:01;;;;;;;2.95;2.72;;;;;;;10.63;73.64;100371.88;5019019;28;20445;-80
2022/02/03 13:45:27;;;;;;;5.07;3.38;;;;;;;10.47;74.10;100362.69;5027050;28;20482;-80
2022/02/03 13:47:52;;;;;;;7.40;3.97;;;;;;;10.39;75.02;100363.09;5017051;28;20441;-80
2022/02/03 13:50:23;;;;;;;5.03;4.13;;;;;;;10.46;74.29;100360.22;5017143;28;20419;-80
2022/02/03 13:53:05;;;;;;;2.97;2.78;;;;;;;10.36;75.13;100358.97;5015700;28;20529;-80
2022/02/03 14:15:09;;;;;;;3.30;3.10;;;;;;;10.08;75.09;100339.22;5027075;28;20448;-82
2022/02/03 14:18:09;;;;;;;3.30;3.03;;;;;;;10.11;75.15;100346.88;5018350;28;20544;-86
2022/02/03 14:20:44;;;;;;;3.60;2.85;;;;;;;10.01;75.12;100357.53;5013482;28;20924;-83
2022/02/03 14:28:32;;;;;;;2.42;2.33;;;;;;;9.95;75.52;100328.69;5018817;28;20828;-83
2022/02/03 14:31:02;;;;;;;2.53;2.42;;;;;;;9.83;75.48;100318.75;5019375;28;20478;-82
2022/02/03 14:33:32;;;;;;;3.13;2.58;;;;;;;9.75;75.92;100316.44;5017904;28;20857;-82
2022/02/03 14:36:17;;;;;;;3.13;2.92;;;;;;;9.76;75.87;100336.22;5021926;28;20454;-80
2022/02/03 14:41:45;;;;;;;3.10;2.90;;;;;;;9.72;76.04;100332.34;5023966;28;20393;-83
2022/02/03 14:44:00;;;;;;;3.70;3.40;;;;;;;9.70;76.33;100350.72;5013279;28;20924;-82
2022/02/03 14:46:26;;;;;;;4.30;3.90;;;;;;;9.68;76.43;100342.03;5028718;28;20813;-82
2022/02/03 14:48:55;;;;;;;2.63;2.42;;;;;;;9.68;76.28;100337.41;5027429;28;20817;-83
2022/02/03 14:51:26;;;;;;;3.10;2.88;;;;;;;9.58;76.51;100322.88;5023271;28;20447;-82
2022/02/03 14:58:00;;;;;;;2.63;2.43;;;;;;;9.49;76.33;100322.44;5015292;28;20421;-83
2022/02/03 14:59:23;;;;;;;1.60;1.60;;;;;;;9.37;75.56;100318.97;5024540;28;20756;-83
2022/02/03 15:01:48;;;;;;;1.97;1.87;;;;;;;9.39;76.08;100322.22;5028620;28;20403;-84
2022/02/03 15:04:23;;;;;;;2.10;1.90;;;;;;;9.32;76.14;100311.56;5014083;28;20404;-82
2022/02/03 15:06:56;;;;;;;1.52;1.52;;;;;;;9.30;76.19;100312.88;5016753;28;20430;-82
2022/02/03 15:09:48;;;;;;;2.00;1.90;;;;;;;9.24;75.71;100311.94;5027043;28;20469;-83
2022/02/03 15:14:52;;;;;;;2.95;2.40;;;;;;;9.21;75.90;100311.59;5027199;28;20411;-83
2022/02/03 15:17:20;;;;;;;2.47;2.03;;;;;;;9.33;75.50;100315.91;5027492;28;20496;-82
2022/02/03 15:19:45;;;;;;;2.28;2.10;;;;;;;9.23;75.23;100314.88;5022698;28;20392;-82
2022/02/03 15:22:11;;;;;;;5.40;2.38;;;;;;;9.15;75.37;100316.09;5024967;28;20913;-82
2022/02/03 15:24:36;;;;;;;3.30;2.10;;;;;;;9.13;75.92;100320.06;5017505;28;20885;-85
2022/02/03 15:27:03;;;;;;;2.40;2.20;;;;;;;9.07;75.97;100312.94;5004197;28;20781;-84
2022/02/03 15:29:29;;;;;;;4.47;3.85;;;;;;;8.99;76.27;100316.81;5015373;28;20413;-85
2022/02/03 15:31:55;;;;;;;3.20;3.00;;;;;;;8.99;76.20;100314.09;5029094;28;20411;-84
2022/02/03 15:34:22;;;;;;;3.17;2.97;;;;;;;8.94;76.28;100313.19;5023838;28;20757;-84
2022/02/03 15:36:51;;;;;;;2.40;2.23;;;;;;;8.97;75.96;100313.53;5027959;28;20550;-84
2022/02/03 15:39:22;;;;;;;6.07;3.88;;;;;;;9.00;76.33;100304.94;5016585;28;20878;-85
2022/02/03 15:41:49;;;;;;;3.53;2.90;;;;;;;9.02;75.93;100299.31;5022271;28;20416;-85
2022/02/03 15:44:15;;;;;;;2.38;2.28;;;;;;;8.89;76.16;100303.09;5002107;28;20773;-85
2022/02/03 15:46:48;;;;;;;2.25;2.13;;;;;;;8.90;75.80;100303.91;5001625;28;20469;-85
2022/02/03 15:49:45;;;;;;;4.60;3.90;;;;;;;8.86;76.49;100298.97;5023732;28;20420;-85
2022/02/03 16:00:53;;;;;;;5.30;3.83;;;;;;;8.60;76.62;100296.78;5020295;28;20947;-84
2022/02/03 16:19:12;;;;;;;20.40;13.88;;;;;;;8.49;77.91;100313.00;5018641;28;20555;-83
2022/02/03 16:21:48;;;;;;;9.77;7.43;;;;;;;8.42;77.80;100313.09;5020158;28;20497;-83
2022/02/03 16:24:42;;;;;;;8.05;6.40;;;;;;;8.43;77.71;100311.22;5013579;28;20420;-84
2022/02/03 16:40:45;;;;;;;4.68;4.28;;;;;;;8.45;77.36;100314.50;5020515;28;20408;-83
2022/02/03 16:41:06;;;;;;;14.32;10.55;;;;;;;8.37;78.23;100309.44;5016967;28;20396;-82
2022/02/03 16:54:29;;;;;;;22.88;14.10;;;;;;;8.35;78.36;100296.19;5019112;28;20444;-83
2022/02/03 16:57:00;;;;;;;10.85;7.50;;;;;;;8.34;78.53;100298.06;5012650;28;20492;-83
2022/02/03 16:59:26;;;;;;;8.50;5.88;;;;;;;8.33;78.60;100298.31;5024480;28;20415;-82
2022/02/03 17:01:51;;;;;;;38.85;23.85;;;;;;;8.35;78.92;100304.28;5025782;28;20454;-82
2022/02/03 17:04:18;;;;;;;62.55;38.35;;;;;;;8.36;78.89;100303.25;5015370;28;20415;-82
2022/02/03 17:06:47;;;;;;;36.87;23.00;;;;;;;8.36;78.58;100300.53;5018301;28;20889;-81
2022/02/03 17:09:13;;;;;;;38.83;22.67;;;;;;;8.36;78.64;100302.41;5018060;28;20500;-82
2022/02/03 17:11:38;;;;;;;64.10;38.85;;;;;;;8.40;78.85;100300.91;5014540;28;20419;-81
2022/02/03 17:14:04;;;;;;;41.80;25.65;;;;;;;8.41;78.50;100295.25;5015895;28;20406;-81
2022/02/03 17:16:29;;;;;;;28.60;20.00;;;;;;;8.41;78.30;100295.25;5009758;28;20815;-81
2022/02/03 17:18:56;;;;;;;25.47;17.23;;;;;;;8.40;78.79;100290.91;5016907;28;20869;-81
2022/02/03 17:21:25;;;;;;;21.77;16.00;;;;;;;8.41;78.97;100292.56;5014986;28;20485;-81
2022/02/03 17:23:50;;;;;;;17.60;14.97;;;;;;;8.41;78.12;100284.44;5013465;28;20495;-81
2022/02/03 17:26:23;;;;;;;12.83;11.53;;;;;;;8.42;78.29;100293.38;5015356;28;20457;-80
2022/02/03 17:28:56;;;;;;;9.68;8.48;;;;;;;8.39;79.40;100296.56;5013168;28;20421;-80
2022/02/03 18:07:14;;;;;;;3.95;3.55;;;;;;;8.31;79.61;100286.91;5018141;28;20403;-81
2022/02/03 18:18:13;;;;;;;3.00;2.72;;;;;;;8.16;80.41;100281.97;5020365;28;20464;-81
2022/02/03 18:31:15;;;;;;;5.25;4.80;;;;;;;8.18;80.50;100270.91;5016329;28;20463;-80
2022/02/03 18:34:07;;;;;;;7.20;5.53;;;;;;;8.21;80.17;100279.38;5016016;28;20424;-81
2022/02/03 18:36:49;;;;;;;6.75;5.97;;;;;;;8.22;80.20;100286.41;5019177;28;20394;-80
2022/02/03 18:48:53;;;;;;;4.85;4.15;;;;;;;8.23;79.58;100279.94;5020659;28;20821;-80
2022/02/03 18:50:39;;;;;;;4.60;4.20;;;;;;;8.21;79.90;100275.84;5016795;28;21041;-80
2022/02/03 18:53:12;;;;;;;6.45;4.05;;;;;;;8.19;80.04;100270.69;5027613;28;20517;-80
2022/02/03 18:58:34;;;;;;;4.43;4.03;;;;;;;8.17;80.07;100258.47;5027218;28;20503;-80
2022/02/03 19:01:17;;;;;;;6.13;4.40;;;;;;;8.08;80.72;100255.28;5024222;28;20830;-80
2022/02/03 19:13:26;;;;;;;6.13;5.13;;;;;;;8.00;81.60;100247.53;5017480;28;20425;-81
2022/02/03 19:26:10;;;;;;;15.32;5.57;;;;;;;8.08;81.12;100267.97;5027268;28;20408;-80
2022/02/03 20:02:36;;;;;;;14.93;11.77;;;;;;;7.97;81.92;100283.06;5013231;28;20423;-80
2022/02/03 20:05:04;;;;;;;12.63;9.27;;;;;;;7.97;81.99;100282.28;5028787;28;20825;-80
2022/02/03 20:07:46;;;;;;;42.03;27.02;;;;;;;7.93;81.44;100281.91;5018793;28;20401;-80
2022/02/03 20:10:21;;;;;;;9.75;6.80;;;;;;;7.96;81.38;100288.72;5024589;28;20964;-80
2022/02/03 20:12:47;;;;;;;16.13;8.43;;;;;;;7.91;81.68;100288.56;5025346;28;20417;-80
2022/02/03 20:15:15;;;;;;;14.35;7.97;;;;;;;7.86;81.44;100293.88;5012223;28;20771;-80
2022/02/03 20:17:40;;;;;;;12.15;8.10;;;;;;;7.80;82.34;100288.31;5020578;28;20447;-80
2022/02/03 20:20:07;;;;;;;18.37;11.53;;;;;;;7.82;82.28;100290.81;5042920;28;20439;-80
2022/02/03 20:22:37;;;;;;;14.32;8.95;;;;;;;7.89;81.42;100288.81;5011032;28;20929;-80
2022/02/03 20:25:04;;;;;;;8.98;5.72;;;;;;;7.87;81.63;100290.13;5033427;28;20422;-80
2022/02/03 20:27:32;;;;;;;10.27;6.80;;;;;;;7.87;81.86;100287.41;5022759;28;20799;-80
2022/02/03 20:29:58;;;;;;;18.35;10.93;;;;;;;7.94;81.05;100288.94;5031799;28;20482;-80
2022/02/03 20:32:25;;;;;;;12.03;9.40;;;;;;;7.95;81.17;100287.06;5020591;28;20440;-80
2022/02/03 20:34:50;;;;;;;5.60;4.65;;;;;;;7.86;81.71;100286.59;5018034;28;20452;-80
2022/02/03 20:37:16;;;;;;;5.57;5.07;;;;;;;7.89;81.19;100288.81;5023849;28;20902;-80
2022/02/03 20:39:43;;;;;;;6.23;5.33;;;;;;;7.87;81.06;100280.13;5018736;28;20493;-80
2022/02/03 20:42:11;;;;;;;9.50;7.20;;;;;;;7.76;81.52;100273.66;5020696;28;20424;-80
2022/02/03 20:44:37;;;;;;;9.80;7.05;;;;;;;7.72;81.55;100275.19;5029303;28;20586;-80
2022/02/03 20:47:03;;;;;;;12.95;7.63;;;;;;;7.68;81.49;100278.56;5020757;28;20408;-80
2022/02/03 20:49:28;;;;;;;7.35;5.07;;;;;;;7.63;81.91;100286.53;5017471;28;20409;-80
2022/02/03 20:51:56;;;;;;;8.10;4.80;;;;;;;7.60;81.73;100282.44;5024094;28;20811;-80
2022/02/03 20:54:21;;;;;;;12.60;7.20;;;;;;;7.64;81.83;100280.88;5019108;28;20411;-80
2022/02/03 20:56:47;;;;;;;8.47;5.97;;;;;;;7.62;81.68;100280.31;5018137;28;20502;-80
2022/02/03 20:59:13;;;;;;;5.57;4.78;;;;;;;7.60;81.59;100284.28;5013475;28;20408;-80
2022/02/03 21:01:40;;;;;;;8.48;5.40;;;;;;;7.61;81.41;100283.22;5017422;28;20443;-80
2022/02/03 21:04:11;;;;;;;7.13;5.60;;;;;;;7.50;81.64;100290.25;5023131;28;20466;-80
2022/02/03 21:06:37;;;;;;;8.88;7.00;;;;;;;7.48;81.93;100283.41;5024115;28;20948;-80
2022/02/03 21:09:05;;;;;;;8.33;6.60;;;;;;;7.48;82.05;100281.53;5015763;28;20405;-80
2022/02/03 21:11:30;;;;;;;7.55;5.90;;;;;;;7.50;82.02;100276.75;5020921;28;20406;-80